Time;durP1;ratioP1;P1;durP2;ratioP2;P2;SDS_P1;SDS_P2;PMS_P1;PMS_P2;Temp;Humidity;BMP_temperature;BMP_pressure;BME280_temperature;BME280_humidity;BME280_pressure;Samples;Min_cycle;Max_cycle;Signal;HPM_P1;HPM_P2
2023/09/13 00:02:17;;;;;;;9.20;4.95;;;;;;;;;;4997206;28;20443;-87
2023/09/13 00:05:02;;;;;;;9.23;5.50;;;;;;;;;;5010126;28;20042;-87
2023/09/13 00:07:47;;;;;;;11.82;5.55;;;;;;;;;;4975909;28;20041;-85
2023/09/13 00:10:33;;;;;;;6.47;4.57;;;;;;;;;;5000048;28;20035;-76
2023/09/13 00:13:18;;;;;;;7.82;5.25;;;;;;;;;;4997106;28;20034;-75
2023/09/13 00:16:04;;;;;;;9.07;4.65;;;;;;;;;;4997961;28;20027;-75
2023/09/13 00:18:49;;;;;;;8.85;5.00;;;;;;;;;;4998401;28;20110;-75
2023/09/13 00:21:35;;;;;;;12.32;6.45;;;;;;;;;;4998232;28;20049;-75
2023/09/13 00:24:20;;;;;;;9.95;6.30;;;;;;;;;;4985062;28;20038;-75
2023/09/13 00:27:05;;;;;;;9.02;5.60;;;;;;;;;;4984563;28;20043;-66
2023/09/13 00:29:50;;;;;;;7.95;5.40;;;;;;;;;;5004989;28;20031;-66
2023/09/13 00:32:36;;;;;;;11.23;5.55;;;;;;;;;;4984146;28;20128;-68
2023/09/13 00:35:21;;;;;;;9.18;5.28;;;;;;;;;;4989333;28;20038;-67
2023/09/13 00:38:06;;;;;;;8.90;6.00;;;;;;;;;;4981419;28;20113;-68
2023/09/13 00:40:52;;;;;;;9.57;5.65;;;;;;;;;;4997732;28;20090;-68
2023/09/13 00:43:37;;;;;;;9.50;5.97;;;;;;;;;;4980372;28;20118;-67
2023/09/13 00:46:22;;;;;;;12.38;6.15;;;;;;;;;;4997138;28;20048;-67
2023/09/13 00:49:08;;;;;;;10.45;5.90;;;;;;;;;;4997162;28;20066;-74
2023/09/13 00:51:54;;;;;;;9.55;6.55;;;;;;;;;;4956571;28;20158;-76
2023/09/13 00:54:39;;;;;;;10.25;5.03;;;;;;;;;;4972958;28;20052;-75
2023/09/13 00:57:24;;;;;;;12.50;5.68;;;;;;;;;;5005065;28;20054;-75
2023/09/13 01:00:10;;;;;;;9.23;5.03;;;;;;;;;;4971339;28;20053;-73
2023/09/13 01:02:56;;;;;;;8.48;5.78;;;;;;;;;;4997348;28;20040;-74
2023/09/13 01:05:41;;;;;;;8.52;6.03;;;;;;;;;;4962997;28;20043;-65
2023/09/13 01:08:27;;;;;;;11.43;5.20;;;;;;;;;;4957394;28;20390;-67
2023/09/13 01:11:12;;;;;;;9.70;5.72;;;;;;;;;;4982389;28;20047;-67
2023/09/13 01:13:57;;;;;;;8.55;5.70;;;;;;;;;;4985463;28;20057;-68
2023/09/13 01:16:51;;;;;;;8.40;5.90;;;;;;;;;;4985160;28;20042;-67
2023/09/13 01:19:51;;;;;;;7.55;4.72;;;;;;;;;;4982968;28;20038;-67
2023/09/13 01:22:49;;;;;;;8.80;5.13;;;;;;;;;;4980551;28;20046;-71
2023/09/13 01:25:53;;;;;;;9.30;5.15;;;;;;;;;;4992063;28;20129;-84
2023/09/13 01:28:46;;;;;;;10.13;5.43;;;;;;;;;;4983030;28;20069;-87
2023/09/13 01:31:33;;;;;;;7.35;4.95;;;;;;;;;;4983312;28;20089;-86
2023/09/13 01:34:18;;;;;;;10.73;5.63;;;;;;;;;;4996725;28;20027;-86
2023/09/13 01:37:04;;;;;;;9.27;5.30;;;;;;;;;;4976496;28;20073;-85
2023/09/13 01:39:50;;;;;;;7.95;5.32;;;;;;;;;;4958918;28;20066;-83
2023/09/13 01:42:38;;;;;;;13.25;5.75;;;;;;;;;;4977366;28;20478;-76
2023/09/13 01:45:24;;;;;;;10.30;6.35;;;;;;;;;;4984418;28;20047;-75
2023/09/13 01:48:09;;;;;;;10.45;6.50;;;;;;;;;;4969186;28;20031;-75
2023/09/13 01:50:55;;;;;;;12.70;5.63;;;;;;;;;;4969274;28;20042;-75
2023/09/13 01:53:43;;;;;;;7.88;4.82;;;;;;;;;;4990967;28;20481;-74
2023/09/13 01:56:29;;;;;;;8.82;5.80;;;;;;;;;;4984062;28;20034;-75
2023/09/13 01:59:14;;;;;;;11.05;5.57;;;;;;;;;;4996402;28;20046;-69
2023/09/13 02:01:59;;;;;;;8.18;5.45;;;;;;;;;;5000435;28;20184;-69
2023/09/13 02:04:44;;;;;;;10.00;5.57;;;;;;;;;;4970780;28;20027;-69
2023/09/13 02:07:29;;;;;;;7.95;4.72;;;;;;;;;;4982608;28;20070;-68
2023/09/13 02:10:15;;;;;;;7.88;5.32;;;;;;;;;;4965630;28;20029;-68
2023/09/13 02:13:00;;;;;;;6.80;4.55;;;;;;;;;;5002390;28;20377;-66
2023/09/13 02:15:45;;;;;;;7.93;4.40;;;;;;;;;;4976186;28;20393;-67
2023/09/13 02:18:30;;;;;;;8.38;5.13;;;;;;;;;;4984793;28;20039;-68
2023/09/13 02:21:16;;;;;;;7.03;4.63;;;;;;;;;;4969583;28;20047;-67
2023/09/13 02:24:01;;;;;;;8.30;5.22;;;;;;;;;;4988410;28;20034;-66
2023/09/13 02:26:47;;;;;;;6.13;4.63;;;;;;;;;;4988532;28;20042;-69
2023/09/13 02:29:32;;;;;;;10.05;5.55;;;;;;;;;;5006170;28;20053;-68
2023/09/13 02:32:17;;;;;;;7.88;4.90;;;;;;;;;;4989965;28;20026;-68
2023/09/13 02:35:02;;;;;;;8.93;5.15;;;;;;;;;;4988730;28;20054;-68
2023/09/13 02:37:48;;;;;;;7.97;4.90;;;;;;;;;;4989033;28;20042;-68
2023/09/13 02:40:33;;;;;;;9.57;4.43;;;;;;;;;;4988858;28;20042;-76
2023/09/13 02:43:18;;;;;;;10.07;5.18;;;;;;;;;;5002578;28;20034;-77
2023/09/13 02:46:03;;;;;;;7.65;5.25;;;;;;;;;;4973424;28;20109;-76
2023/09/13 02:48:48;;;;;;;7.32;4.80;;;;;;;;;;5002155;28;20030;-76
2023/09/13 02:51:34;;;;;;;6.40;4.50;;;;;;;;;;4967428;28;20038;-76
2023/09/13 02:54:20;;;;;;;10.82;4.85;;;;;;;;;;4988990;28;20497;-69
2023/09/13 02:57:07;;;;;;;7.35;5.10;;;;;;;;;;4985546;28;20042;-69
2023/09/13 02:59:52;;;;;;;6.35;4.63;;;;;;;;;;5001303;28;20070;-69
2023/09/13 03:02:38;;;;;;;6.10;4.20;;;;;;;;;;4993341;28;20489;-68
2023/09/13 03:05:23;;;;;;;11.10;4.85;;;;;;;;;;4973935;28;20034;-66
2023/09/13 03:08:08;;;;;;;6.82;4.78;;;;;;;;;;4985410;28;20039;-68
2023/09/13 03:10:53;;;;;;;9.43;4.75;;;;;;;;;;4975089;28;20058;-69
2023/09/13 03:13:38;;;;;;;6.45;4.50;;;;;;;;;;4974012;28;20125;-76
2023/09/13 03:16:24;;;;;;;8.73;4.70;;;;;;;;;;4988299;28;20066;-68
2023/09/13 03:19:10;;;;;;;6.65;4.43;;;;;;;;;;4988508;28;20484;-69
2023/09/13 03:21:55;;;;;;;6.65;4.45;;;;;;;;;;4998658;28;20105;-68
2023/09/13 03:24:41;;;;;;;5.97;4.28;;;;;;;;;;4970612;28;20130;-67
2023/09/13 03:27:26;;;;;;;8.35;4.55;;;;;;;;;;4981880;28;20031;-68
2023/09/13 03:30:11;;;;;;;7.18;4.10;;;;;;;;;;4969663;28;20065;-66
2023/09/13 03:32:57;;;;;;;5.80;4.32;;;;;;;;;;4985559;28;20038;-77
2023/09/13 03:35:42;;;;;;;6.85;5.22;;;;;;;;;;4985167;28;20042;-77
2023/09/13 03:38:27;;;;;;;9.43;5.18;;;;;;;;;;4998930;28;20506;-78
2023/09/13 03:41:19;;;;;;;6.07;4.00;;;;;;;;;;4978979;28;20057;-77
2023/09/13 03:44:05;;;;;;;8.68;5.38;;;;;;;;;;4986965;28;20027;-76
2023/09/13 03:46:50;;;;;;;8.90;4.05;;;;;;;;;;4985906;28;20050;-76
2023/09/13 03:49:35;;;;;;;6.47;4.00;;;;;;;;;;4984949;28;20050;-77
2023/09/13 03:52:20;;;;;;;8.05;5.03;;;;;;;;;;4996728;28;20042;-67
2023/09/13 03:55:06;;;;;;;6.05;4.35;;;;;;;;;;4958150;28;20027;-68
2023/09/13 03:57:51;;;;;;;9.27;5.78;;;;;;;;;;4956276;28;20043;-67
2023/09/13 04:00:37;;;;;;;9.50;5.38;;;;;;;;;;4989360;28;20039;-68
2023/09/13 04:03:23;;;;;;;7.28;5.05;;;;;;;;;;4975169;28;20042;-69
2023/09/13 04:06:08;;;;;;;7.18;4.78;;;;;;;;;;4975338;28;20140;-69
2023/09/13 04:08:54;;;;;;;9.93;4.85;;;;;;;;;;4973235;28;20058;-68
2023/09/13 04:11:39;;;;;;;6.82;4.30;;;;;;;;;;5000179;28;20409;-67
2023/09/13 04:14:24;;;;;;;7.45;4.97;;;;;;;;;;4990410;28;20101;-68
2023/09/13 04:17:09;;;;;;;7.93;4.80;;;;;;;;;;4975078;28;20034;-69
2023/09/13 04:19:54;;;;;;;6.85;4.60;;;;;;;;;;4972367;28;20146;-67
2023/09/13 04:22:40;;;;;;;8.82;4.97;;;;;;;;;;5003124;28;20118;-66
2023/09/13 04:25:25;;;;;;;6.88;4.38;;;;;;;;;;4989181;28;20108;-68
2023/09/13 04:28:10;;;;;;;8.23;4.97;;;;;;;;;;4990812;28;20380;-68
2023/09/13 04:30:57;;;;;;;10.35;5.68;;;;;;;;;;4994399;28;20031;-67
2023/09/13 04:33:50;;;;;;;7.65;5.10;;;;;;;;;;4983704;28;20050;-67
2023/09/13 04:36:36;;;;;;;10.52;5.63;;;;;;;;;;4983837;28;20051;-67
2023/09/13 04:39:21;;;;;;;7.53;5.40;;;;;;;;;;5003401;28;20540;-67
2023/09/13 04:42:06;;;;;;;8.98;5.47;;;;;;;;;;4988306;28;20085;-69
2023/09/13 04:44:52;;;;;;;8.68;5.60;;;;;;;;;;4983771;28;20038;-69
2023/09/13 04:47:37;;;;;;;8.70;5.25;;;;;;;;;;4998653;28;20034;-78
2023/09/13 04:50:22;;;;;;;8.02;5.10;;;;;;;;;;4984197;28;20093;-77
2023/09/13 04:53:07;;;;;;;8.07;4.55;;;;;;;;;;5001000;28;20034;-77
2023/09/13 04:55:53;;;;;;;8.07;4.90;;;;;;;;;;4989536;28;20046;-78
2023/09/13 04:58:38;;;;;;;8.35;5.43;;;;;;;;;;4959177;28;20027;-77
2023/09/13 05:01:23;;;;;;;9.07;5.80;;;;;;;;;;4997179;28;20030;-77
2023/09/13 05:04:09;;;;;;;12.02;6.60;;;;;;;;;;4997636;28;20031;-67
2023/09/13 05:06:54;;;;;;;9.75;5.90;;;;;;;;;;4996749;28;20482;-68
2023/09/13 05:09:40;;;;;;;10.32;5.35;;;;;;;;;;4983035;28;20077;-68
2023/09/13 05:12:25;;;;;;;9.57;5.75;;;;;;;;;;4992060;28;20038;-68
2023/09/13 05:15:10;;;;;;;9.07;6.38;;;;;;;;;;4975232;28;20038;-65
2023/09/13 05:17:55;;;;;;;8.30;5.22;;;;;;;;;;4989661;28;20043;-68
2023/09/13 05:20:41;;;;;;;7.60;5.45;;;;;;;;;;4967645;28;20100;-70
2023/09/13 05:23:26;;;;;;;8.30;4.85;;;;;;;;;;4996608;28;20126;-70
2023/09/13 05:26:11;;;;;;;7.50;5.03;;;;;;;;;;4974612;28;20061;-69
2023/09/13 05:28:56;;;;;;;8.48;5.57;;;;;;;;;;4968879;28;20059;-70
2023/09/13 05:31:42;;;;;;;8.15;5.40;;;;;;;;;;4983016;28;20486;-69
2023/09/13 05:34:27;;;;;;;9.27;4.85;;;;;;;;;;4993720;28;20069;-68
2023/09/13 05:37:12;;;;;;;9.05;5.65;;;;;;;;;;4979771;28;20042;-68
2023/09/13 05:39:58;;;;;;;7.97;5.65;;;;;;;;;;4996507;28;20055;-71
2023/09/13 05:42:43;;;;;;;11.05;4.97;;;;;;;;;;4974453;28;20070;-75
2023/09/13 05:45:28;;;;;;;8.55;5.32;;;;;;;;;;4973955;28;20034;-76
2023/09/13 05:48:13;;;;;;;9.77;6.25;;;;;;;;;;4998342;28;20085;-75
2023/09/13 05:50:59;;;;;;;8.20;5.53;;;;;;;;;;4996288;28;20035;-75
2023/09/13 05:53:44;;;;;;;7.10;4.70;;;;;;;;;;4991709;28;20069;-76
2023/09/13 05:56:29;;;;;;;9.80;4.70;;;;;;;;;;4984496;28;20038;-75
2023/09/13 05:59:15;;;;;;;6.80;4.72;;;;;;;;;;4996824;28;20374;-67
2023/09/13 06:02:00;;;;;;;7.78;4.85;;;;;;;;;;4997050;28;20062;-75
2023/09/13 06:04:45;;;;;;;6.15;4.53;;;;;;;;;;4997094;28;20126;-76
2023/09/13 06:07:30;;;;;;;7.82;4.30;;;;;;;;;;4989854;28;20034;-75
2023/09/13 06:10:15;;;;;;;8.38;4.80;;;;;;;;;;4956047;28;20031;-77
2023/09/13 06:13:01;;;;;;;8.07;4.95;;;;;;;;;;5009537;28;20096;-77
2023/09/13 06:15:46;;;;;;;7.60;5.53;;;;;;;;;;4996669;28;20121;-76
2023/09/13 06:18:31;;;;;;;8.82;5.43;;;;;;;;;;4986205;28;20038;-68
2023/09/13 06:21:16;;;;;;;7.57;4.95;;;;;;;;;;4989984;28;20035;-75
2023/09/13 06:24:02;;;;;;;8.43;5.03;;;;;;;;;;4972146;28;20038;-75
2023/09/13 06:26:47;;;;;;;10.43;5.05;;;;;;;;;;4992362;28;20034;-75
2023/09/13 06:29:32;;;;;;;9.25;6.03;;;;;;;;;;4969243;28;20410;-75
2023/09/13 06:32:17;;;;;;;10.32;6.15;;;;;;;;;;4968953;28;20468;-75
2023/09/13 06:35:03;;;;;;;8.30;5.10;;;;;;;;;;4970294;28;20043;-70
2023/09/13 06:37:48;;;;;;;6.60;4.82;;;;;;;;;;4968122;28;20462;-77
2023/09/13 06:40:37;;;;;;;7.15;4.68;;;;;;;;;;4967923;28;20563;-77
2023/09/13 06:43:25;;;;;;;6.45;4.20;;;;;;;;;;4982678;28;20042;-76
2023/09/13 06:46:10;;;;;;;10.30;5.65;;;;;;;;;;4983108;28;20030;-76
2023/09/13 06:48:56;;;;;;;7.72;5.40;;;;;;;;;;4997419;28;20035;-76
2023/09/13 06:51:41;;;;;;;6.43;4.35;;;;;;;;;;4969022;28;20038;-77
2023/09/13 06:54:26;;;;;;;7.00;5.10;;;;;;;;;;4994689;28;20042;-69
2023/09/13 06:57:12;;;;;;;6.95;4.53;;;;;;;;;;4970671;28;20030;-87
2023/09/13 06:59:57;;;;;;;6.90;4.55;;;;;;;;;;4974281;28;20040;-86
2023/09/13 07:02:42;;;;;;;10.30;4.85;;;;;;;;;;4976180;28;20130;-87
2023/09/13 07:05:27;;;;;;;6.22;4.80;;;;;;;;;;4966061;28;20517;-87
2023/09/13 07:08:13;;;;;;;7.20;4.50;;;;;;;;;;4988664;28;20523;-86
2023/09/13 07:10:58;;;;;;;9.10;4.63;;;;;;;;;;4986781;28;20035;-86
2023/09/13 07:13:43;;;;;;;11.18;4.50;;;;;;;;;;4961389;28;20492;-77
2023/09/13 07:16:28;;;;;;;8.40;5.22;;;;;;;;;;5010363;28;20034;-76
2023/09/13 07:19:13;;;;;;;6.90;5.10;;;;;;;;;;4987611;28;20049;-76
2023/09/13 07:21:59;;;;;;;7.22;4.43;;;;;;;;;;4985326;28;20430;-75
2023/09/13 07:24:44;;;;;;;6.63;4.32;;;;;;;;;;4986816;28;20066;-75
2023/09/13 07:27:30;;;;;;;6.20;4.45;;;;;;;;;;4996912;28;20577;-75
2023/09/13 07:30:15;;;;;;;9.23;4.72;;;;;;;;;;4987284;28;20097;-68
2023/09/13 07:33:00;;;;;;;7.32;4.10;;;;;;;;;;4994148;28;20038;-67
2023/09/13 07:35:46;;;;;;;6.05;4.10;;;;;;;;;;4990573;28;20039;-68
2023/09/13 07:38:31;;;;;;;5.72;4.40;;;;;;;;;;4999290;28;20031;-68
2023/09/13 07:41:17;;;;;;;6.35;3.92;;;;;;;;;;4985346;28;20026;-69
2023/09/13 07:44:02;;;;;;;6.97;4.82;;;;;;;;;;5012759;28;20077;-68
2023/09/13 07:46:47;;;;;;;5.95;4.13;;;;;;;;;;4972493;28;20035;-67
2023/09/13 07:49:32;;;;;;;6.00;3.97;;;;;;;;;;4997706;28;20506;-69
2023/09/13 07:52:18;;;;;;;6.32;4.25;;;;;;;;;;4971411;28;20378;-70
2023/09/13 07:55:03;;;;;;;8.68;5.28;;;;;;;;;;4988036;28;20030;-69
2023/09/13 07:57:48;;;;;;;7.85;4.90;;;;;;;;;;4984175;28;20041;-68
2023/09/13 08:00:34;;;;;;;6.43;4.55;;;;;;;;;;5010327;28;20470;-68
2023/09/13 08:03:19;;;;;;;6.18;4.65;;;;;;;;;;4972323;28;20109;-68
2023/09/13 08:06:05;;;;;;;6.47;4.45;;;;;;;;;;4991014;28;20491;-68
2023/09/13 08:08:51;;;;;;;10.30;4.70;;;;;;;;;;4961100;28;20035;-67
2023/09/13 08:11:36;;;;;;;4.55;3.40;;;;;;;;;;4984196;28;20509;-68
2023/09/13 08:14:21;;;;;;;7.22;4.80;;;;;;;;;;4971626;28;20102;-68
2023/09/13 08:17:07;;;;;;;5.47;3.70;;;;;;;;;;4989782;28;20037;-68
2023/09/13 08:19:52;;;;;;;6.72;4.40;;;;;;;;;;4983356;28;20539;-69
2023/09/13 08:22:37;;;;;;;7.85;4.55;;;;;;;;;;4987820;28;20486;-68
2023/09/13 08:25:22;;;;;;;5.30;3.80;;;;;;;;;;4957436;28;20035;-67
2023/09/13 08:28:08;;;;;;;8.18;4.75;;;;;;;;;;4970814;28;20029;-68
2023/09/13 08:30:54;;;;;;;5.95;3.58;;;;;;;;;;4996426;28;20039;-69
2023/09/13 08:33:39;;;;;;;5.43;4.05;;;;;;;;;;4983405;28;20043;-68
2023/09/13 08:36:24;;;;;;;5.90;4.25;;;;;;;;;;5006501;28;20381;-70
2023/09/13 08:39:09;;;;;;;5.45;3.83;;;;;;;;;;4984415;28;20030;-68
2023/09/13 08:41:55;;;;;;;7.15;3.97;;;;;;;;;;4997432;28;20073;-67
2023/09/13 08:44:41;;;;;;;8.85;4.45;;;;;;;;;;4973058;28;20046;-69
2023/09/13 08:47:27;;;;;;;6.20;3.60;;;;;;;;;;4987148;28;20121;-76
2023/09/13 08:50:13;;;;;;;4.47;3.17;;;;;;;;;;4996921;28;20490;-77
2023/09/13 08:52:59;;;;;;;8.73;3.95;;;;;;;;;;4972475;28;20041;-79
2023/09/13 08:55:46;;;;;;;4.32;3.40;;;;;;;;;;4977942;28;20626;-77
2023/09/13 08:58:31;;;;;;;4.47;3.30;;;;;;;;;;4965266;28;20042;-76
2023/09/13 09:01:17;;;;;;;4.18;3.03;;;;;;;;;;4972131;28;20074;-77
2023/09/13 09:04:03;;;;;;;4.13;3.00;;;;;;;;;;4978515;28;20047;-69
2023/09/13 09:06:49;;;;;;;7.28;3.83;;;;;;;;;;5003636;28;20355;-69
2023/09/13 09:09:35;;;;;;;5.25;3.88;;;;;;;;;;5000401;28;20473;-68
2023/09/13 09:12:22;;;;;;;4.10;3.15;;;;;;;;;;4982438;28;20034;-70
2023/09/13 09:15:08;;;;;;;4.43;3.00;;;;;;;;;;4972624;28;20113;-70
2023/09/13 09:17:54;;;;;;;6.32;3.60;;;;;;;;;;4975407;28;20108;-68
2023/09/13 09:20:39;;;;;;;4.72;3.00;;;;;;;;;;4949776;28;20067;-86
2023/09/13 09:23:27;;;;;;;6.38;3.25;;;;;;;;;;4992338;28;20038;-84
2023/09/13 09:26:12;;;;;;;4.35;3.03;;;;;;;;;;4971392;28;20035;-87
2023/09/13 09:29:13;;;;;;;4.72;3.20;;;;;;;;;;4948646;28;20034;-88
2023/09/13 09:31:59;;;;;;;4.22;2.63;;;;;;;;;;4996954;28;20038;-88
2023/09/13 09:34:44;;;;;;;4.60;3.40;;;;;;;;;;4983095;28;20090;-88
2023/09/13 09:37:30;;;;;;;5.10;2.72;;;;;;;;;;4996690;28;20042;-88
2023/09/13 09:40:16;;;;;;;4.57;2.78;;;;;;;;;;4963635;28;20877;-73
2023/09/13 09:43:01;;;;;;;3.28;2.53;;;;;;;;;;4986049;28;20058;-78
2023/09/13 09:45:46;;;;;;;4.00;2.83;;;;;;;;;;4982458;28;20023;-78
2023/09/13 09:48:31;;;;;;;4.07;2.78;;;;;;;;;;4997203;28;20503;-76
2023/09/13 09:51:17;;;;;;;5.18;2.60;;;;;;;;;;4997418;28;20030;-76
2023/09/13 09:54:02;;;;;;;4.25;3.08;;;;;;;;;;5007327;28;20428;-75
2023/09/13 09:56:47;;;;;;;4.97;2.97;;;;;;;;;;4969876;28;20031;-76
2023/09/13 09:59:33;;;;;;;4.30;2.75;;;;;;;;;;4989644;28;20508;-74
2023/09/13 10:02:24;;;;;;;3.63;2.63;;;;;;;;;;4996909;28;20039;-69
2023/09/13 10:05:10;;;;;;;4.03;3.00;;;;;;;;;;5001119;28;20069;-69
2023/09/13 10:07:55;;;;;;;6.63;2.67;;;;;;;;;;4985467;28;20034;-70
2023/09/13 10:10:40;;;;;;;3.75;2.90;;;;;;;;;;4996316;28;20031;-70
2023/09/13 10:13:26;;;;;;;3.83;2.92;;;;;;;;;;4968625;28;20432;-70
2023/09/13 10:16:11;;;;;;;3.47;2.72;;;;;;;;;;4979391;28;20359;-82
2023/09/13 10:18:59;;;;;;;3.67;3.13;;;;;;;;;;4975137;28;20227;-75
2023/09/13 10:21:44;;;;;;;3.58;2.40;;;;;;;;;;4970048;28;20046;-75
2023/09/13 10:24:36;;;;;;;3.80;2.65;;;;;;;;;;4978356;28;20030;-76
2023/09/13 10:27:22;;;;;;;3.70;2.22;;;;;;;;;;4998645;28;20039;-77
2023/09/13 10:30:10;;;;;;;5.25;2.80;;;;;;;;;;4983478;28;20035;-75
2023/09/13 10:32:59;;;;;;;4.22;3.10;;;;;;;;;;4996540;28;20027;-75
2023/09/13 10:35:45;;;;;;;4.15;2.72;;;;;;;;;;4989160;28;20063;-68
2023/09/13 10:38:49;;;;;;;5.65;3.17;;;;;;;;;;4957743;28;20039;-68
2023/09/13 10:41:37;;;;;;;7.20;3.38;;;;;;;;;;4977918;28;20047;-66
2023/09/13 10:44:22;;;;;;;3.53;2.55;;;;;;;;;;4969984;28;20038;-67
2023/09/13 10:47:08;;;;;;;5.00;2.65;;;;;;;;;;5005999;28;20077;-68
2023/09/13 10:49:54;;;;;;;4.18;3.08;;;;;;;;;;4973096;28;20031;-68
2023/09/13 10:52:39;;;;;;;4.55;2.97;;;;;;;;;;4999646;28;20557;-74
2023/09/13 10:55:25;;;;;;;6.20;3.42;;;;;;;;;;4995922;28;20466;-68
2023/09/13 10:58:18;;;;;;;6.28;3.35;;;;;;;;;;4999124;28;20034;-70
2023/09/13 11:01:04;;;;;;;4.38;3.22;;;;;;;;;;4994767;28;20053;-70
2023/09/13 11:03:49;;;;;;;3.28;2.63;;;;;;;;;;4986469;28;20061;-68
2023/09/13 11:06:35;;;;;;;4.60;3.10;;;;;;;;;;4983389;28;20034;-69
2023/09/13 11:09:24;;;;;;;4.47;3.22;;;;;;;;;;4965122;28;20517;-70
2023/09/13 11:12:12;;;;;;;4.22;3.38;;;;;;;;;;4986055;28;20041;-67
2023/09/13 11:15:10;;;;;;;6.25;3.88;;;;;;;;;;4985804;28;20035;-74
2023/09/13 11:18:12;;;;;;;6.93;3.67;;;;;;;;;;4985164;28;20039;-74
2023/09/13 11:20:57;;;;;;;6.13;3.50;;;;;;;;;;4976142;28;20023;-75
2023/09/13 11:23:43;;;;;;;6.97;3.95;;;;;;;;;;4957671;28;20438;-74
2023/09/13 11:26:44;;;;;;;7.90;4.18;;;;;;;;;;4985403;28;20034;-74
2023/09/13 11:29:38;;;;;;;5.80;2.90;;;;;;;;;;4976521;28;20038;-67
2023/09/13 11:32:28;;;;;;;5.97;3.55;;;;;;;;;;4985548;28;20031;-67
2023/09/13 11:35:13;;;;;;;6.80;3.65;;;;;;;;;;4985637;28;20035;-67
2023/09/13 11:37:59;;;;;;;5.00;3.10;;;;;;;;;;4998886;28;20077;-67
2023/09/13 11:40:47;;;;;;;6.15;3.33;;;;;;;;;;4971340;28;20545;-67
2023/09/13 11:43:35;;;;;;;4.70;3.05;;;;;;;;;;4954396;28;20057;-68
2023/09/13 11:46:20;;;;;;;6.53;3.25;;;;;;;;;;4975873;28;20039;-67
2023/09/13 11:49:05;;;;;;;5.70;3.30;;;;;;;;;;5013012;28;20076;-70
2023/09/13 11:51:52;;;;;;;4.63;3.17;;;;;;;;;;4974256;28;20070;-66
2023/09/13 11:54:51;;;;;;;7.65;3.20;;;;;;;;;;4989285;28;20042;-67
2023/09/13 11:57:52;;;;;;;5.45;2.97;;;;;;;;;;4985323;28;20258;-68
2023/09/13 12:00:41;;;;;;;5.03;3.00;;;;;;;;;;4975981;28;20124;-69
2023/09/13 12:03:27;;;;;;;3.75;2.90;;;;;;;;;;4984675;28;20046;-68
2023/09/13 12:06:12;;;;;;;6.35;3.10;;;;;;;;;;4998356;28;20050;-70
2023/09/13 12:08:57;;;;;;;4.55;3.17;;;;;;;;;;4995531;28;20042;-68
2023/09/13 12:11:43;;;;;;;4.63;2.97;;;;;;;;;;5011674;28;20121;-68
2023/09/13 12:14:31;;;;;;;6.35;3.17;;;;;;;;;;4997873;28;20371;-68
2023/09/13 12:17:16;;;;;;;5.07;2.55;;;;;;;;;;4984758;28;20143;-68
2023/09/13 12:20:05;;;;;;;4.50;2.90;;;;;;;;;;4998125;28;20118;-67
2023/09/13 12:22:51;;;;;;;6.53;3.60;;;;;;;;;;4985017;28;20153;-69
2023/09/13 12:25:37;;;;;;;4.13;2.85;;;;;;;;;;4985510;28;20035;-87
2023/09/13 12:28:25;;;;;;;5.20;2.75;;;;;;;;;;4983721;28;20053;-66
2023/09/13 12:31:11;;;;;;;4.68;3.28;;;;;;;;;;4971749;28;20038;-67
2023/09/13 12:33:58;;;;;;;4.72;3.10;;;;;;;;;;4971557;28;20041;-67
2023/09/13 12:36:43;;;;;;;4.32;2.97;;;;;;;;;;4971042;28;20387;-66
2023/09/13 12:39:29;;;;;;;4.45;2.80;;;;;;;;;;4959203;28;20031;-66
2023/09/13 12:42:15;;;;;;;5.18;3.40;;;;;;;;;;4971193;28;20046;-65
2023/09/13 12:45:01;;;;;;;5.05;3.05;;;;;;;;;;4983740;28;20066;-66
2023/09/13 12:47:46;;;;;;;3.67;2.78;;;;;;;;;;4997425;28;20061;-68
2023/09/13 12:50:31;;;;;;;4.90;3.15;;;;;;;;;;4970459;28;20114;-67
2023/09/13 12:53:16;;;;;;;5.88;3.55;;;;;;;;;;4975425;28;20037;-67
2023/09/13 12:56:02;;;;;;;5.82;3.08;;;;;;;;;;4988239;28;20478;-66
2023/09/13 12:58:48;;;;;;;4.15;2.78;;;;;;;;;;4951620;28;20035;-66
2023/09/13 13:01:35;;;;;;;6.47;2.90;;;;;;;;;;4982184;28;20039;-74
2023/09/13 13:04:23;;;;;;;4.00;1.98;;;;;;;;;;4997528;28;20113;-85
2023/09/13 13:07:08;;;;;;;5.25;2.88;;;;;;;;;;4959350;28;20070;-89
2023/09/13 13:10:01;;;;;;;5.35;2.88;;;;;;;;;;4983546;28;20052;-91
2023/09/13 13:12:53;;;;;;;4.75;2.60;;;;;;;;;;4984159;28;20045;-90
2023/09/13 13:15:38;;;;;;;4.75;2.78;;;;;;;;;;4983998;28;20039;-89
2023/09/13 13:18:23;;;;;;;4.38;2.88;;;;;;;;;;4983912;28;20066;-89
2023/09/13 13:21:12;;;;;;;3.47;2.60;;;;;;;;;;4970524;28;20053;-75
2023/09/13 13:23:57;;;;;;;5.65;2.55;;;;;;;;;;5009814;28;20474;-75
2023/09/13 13:26:42;;;;;;;4.05;2.60;;;;;;;;;;4982640;28;20454;-74
2023/09/13 13:29:27;;;;;;;5.18;2.92;;;;;;;;;;4970319;28;20035;-75
2023/09/13 13:32:12;;;;;;;3.60;3.10;;;;;;;;;;4969668;28;20138;-75
2023/09/13 13:34:59;;;;;;;3.65;2.38;;;;;;;;;;4970249;28;20097;-75
2023/09/13 13:37:47;;;;;;;5.18;2.58;;;;;;;;;;4983773;28;20414;-68
2023/09/13 13:40:33;;;;;;;6.47;3.67;;;;;;;;;;4982699;28;20030;-74
2023/09/13 13:43:18;;;;;;;4.45;2.88;;;;;;;;;;4983437;28;20129;-77
2023/09/13 13:46:04;;;;;;;4.00;2.50;;;;;;;;;;4971376;28;20635;-77
2023/09/13 13:48:49;;;;;;;4.97;2.80;;;;;;;;;;4997381;28;20117;-78
2023/09/13 13:51:34;;;;;;;5.25;3.08;;;;;;;;;;5010425;28;20035;-78
2023/09/13 13:54:20;;;;;;;3.08;2.72;;;;;;;;;;4982331;28;20049;-78
2023/09/13 13:57:05;;;;;;;5.28;3.28;;;;;;;;;;4996869;28;20042;-78
2023/09/13 13:59:50;;;;;;;4.68;2.67;;;;;;;;;;4982385;28;20386;-78
2023/09/13 14:02:36;;;;;;;4.43;2.67;;;;;;;;;;4984385;28;20058;-77
2023/09/13 14:05:21;;;;;;;3.97;3.10;;;;;;;;;;4984739;28;20034;-76
2023/09/13 14:08:07;;;;;;;4.75;3.17;;;;;;;;;;4969031;28;20314;-77
2023/09/13 14:10:55;;;;;;;3.17;2.15;;;;;;;;;;4969050;28;20121;-76
2023/09/13 14:13:40;;;;;;;4.93;2.63;;;;;;;;;;4956058;28;20042;-76
2023/09/13 14:16:26;;;;;;;6.97;3.20;;;;;;;;;;4992902;28;20030;-76
2023/09/13 14:19:11;;;;;;;4.15;2.60;;;;;;;;;;4996338;28;20042;-68
2023/09/13 14:21:56;;;;;;;5.32;3.40;;;;;;;;;;4968163;28;20533;-70
2023/09/13 14:24:41;;;;;;;4.80;3.45;;;;;;;;;;4961071;28;20383;-69
2023/09/13 14:27:26;;;;;;;10.05;3.30;;;;;;;;;;4968897;28;20031;-69
2023/09/13 14:30:12;;;;;;;3.65;2.95;;;;;;;;;;4968904;28;20038;-69
2023/09/13 14:32:57;;;;;;;4.50;3.30;;;;;;;;;;4957460;28;20154;-69
2023/09/13 14:35:42;;;;;;;4.18;3.00;;;;;;;;;;4982123;28;20047;-72
2023/09/13 14:38:27;;;;;;;6.20;2.78;;;;;;;;;;4956298;28;20039;-68
2023/09/13 14:41:13;;;;;;;4.18;2.67;;;;;;;;;;4982550;28;20038;-68
2023/09/13 14:43:58;;;;;;;3.95;2.75;;;;;;;;;;4968703;28;20038;-68
2023/09/13 14:46:43;;;;;;;5.25;2.95;;;;;;;;;;4997109;28;20489;-67
2023/09/13 14:49:28;;;;;;;4.40;2.55;;;;;;;;;;4996253;28;20039;-68
2023/09/13 14:52:13;;;;;;;4.60;2.85;;;;;;;;;;4982477;28;20026;-88
2023/09/13 14:54:59;;;;;;;4.85;2.42;;;;;;;;;;4994502;28;20042;-67
2023/09/13 14:57:44;;;;;;;5.40;2.42;;;;;;;;;;4968841;28;20066;-67
2023/09/13 15:00:30;;;;;;;3.83;2.72;;;;;;;;;;4996228;28;20118;-67
2023/09/13 15:03:15;;;;;;;6.25;3.10;;;;;;;;;;4982062;28;20386;-67
2023/09/13 15:06:01;;;;;;;4.78;3.50;;;;;;;;;;4982054;28;20035;-67
2023/09/13 15:08:47;;;;;;;5.97;3.60;;;;;;;;;;4970775;28;20125;-66
2023/09/13 15:11:32;;;;;;;5.55;3.60;;;;;;;;;;4995152;28;20050;-70
2023/09/13 15:14:17;;;;;;;9.13;4.10;;;;;;;;;;4968450;28;20041;-78
2023/09/13 15:17:03;;;;;;;5.68;3.88;;;;;;;;;;4981793;28;20031;-77
2023/09/13 15:19:48;;;;;;;7.30;4.00;;;;;;;;;;4985699;28;20379;-77
2023/09/13 15:22:33;;;;;;;5.35;3.72;;;;;;;;;;4985748;28;20047;-76
2023/09/13 15:25:18;;;;;;;5.07;3.92;;;;;;;;;;4962414;28;20363;-78
2023/09/13 15:28:04;;;;;;;3.92;3.22;;;;;;;;;;4998927;28;20034;-76
2023/09/13 15:30:50;;;;;;;5.75;3.42;;;;;;;;;;4985698;28;20030;-70
2023/09/13 15:33:36;;;;;;;6.13;3.50;;;;;;;;;;4984935;28;20457;-67
2023/09/13 15:36:21;;;;;;;5.70;3.50;;;;;;;;;;4972036;28;20159;-69
2023/09/13 15:39:06;;;;;;;7.20;3.58;;;;;;;;;;4989148;28;20042;-68
2023/09/13 15:41:51;;;;;;;7.53;4.03;;;;;;;;;;4992005;28;20119;-68
2023/09/13 15:44:37;;;;;;;4.45;3.60;;;;;;;;;;4966098;28;20093;-70
2023/09/13 15:47:22;;;;;;;5.70;3.50;;;;;;;;;;4984623;28;20039;-66
2023/09/13 15:50:07;;;;;;;4.25;3.03;;;;;;;;;;4976018;28;20030;-69
2023/09/13 15:52:53;;;;;;;5.13;3.22;;;;;;;;;;4972807;28;20090;-69
2023/09/13 15:55:38;;;;;;;4.50;3.40;;;;;;;;;;4989938;28;20062;-68
2023/09/13 15:58:23;;;;;;;5.38;3.38;;;;;;;;;;4975060;28;20035;-68
2023/09/13 16:01:08;;;;;;;4.80;2.70;;;;;;;;;;4981086;28;20391;-70
2023/09/13 16:03:53;;;;;;;6.53;3.60;;;;;;;;;;4975726;28;20035;-71
2023/09/13 16:06:39;;;;;;;4.47;3.28;;;;;;;;;;4983154;28;20030;-67
2023/09/13 16:09:25;;;;;;;4.38;2.90;;;;;;;;;;4984626;28;20070;-70
2023/09/13 16:12:10;;;;;;;5.20;3.15;;;;;;;;;;4976336;28;20117;-70
2023/09/13 16:14:55;;;;;;;4.78;2.80;;;;;;;;;;4982259;28;20121;-70
2023/09/13 16:17:41;;;;;;;3.92;2.78;;;;;;;;;;4978902;28;20046;-70
2023/09/13 16:20:26;;;;;;;4.93;3.10;;;;;;;;;;4988769;28;20042;-69
2023/09/13 16:23:15;;;;;;;5.45;3.25;;;;;;;;;;4981936;28;20035;-66
2023/09/13 16:26:01;;;;;;;5.20;3.13;;;;;;;;;;4988830;28;20046;-69
2023/09/13 16:28:46;;;;;;;5.47;3.10;;;;;;;;;;4972089;28;20043;-74
2023/09/13 16:31:32;;;;;;;5.47;2.97;;;;;;;;;;4984241;28;20053;-76
2023/09/13 16:34:17;;;;;;;3.63;2.67;;;;;;;;;;4972385;28;20043;-75